sensor_id;sensor_type;location;lat;lon;timestamp;temperature;humidity
29729;DHT22;20055;51.498;11.960;2023-09-19T00:00:46;18.50;99.90
29729;DHT22;20055;51.498;11.960;2023-09-19T00:03:16;18.50;99.90
29729;DHT22;20055;51.498;11.960;2023-09-19T00:05:42;18.50;99.90
29729;DHT22;20055;51.498;11.960;2023-09-19T00:08:10;18.50;99.90
29729;DHT22;20055;51.498;11.960;2023-09-19T00:10:36;18.40;99.90
29729;DHT22;20055;51.498;11.960;2023-09-19T00:13:03;18.40;99.90
29729;DHT22;20055;51.498;11.960;2023-09-19T00:15:38;18.40;99.90
29729;DHT22;20055;51.498;11.960;2023-09-19T00:18:05;18.40;99.90
29729;DHT22;20055;51.498;11.960;2023-09-19T00:20:38;18.30;99.90
29729;DHT22;20055;51.498;11.960;2023-09-19T00:23:05;18.30;99.90
29729;DHT22;20055;51.498;11.960;2023-09-19T00:25:32;18.30;99.90
29729;DHT22;20055;51.498;11.960;2023-09-19T00:27:58;18.30;99.90
29729;DHT22;20055;51.498;11.960;2023-09-19T00:30:24;18.30;99.90
29729;DHT22;20055;51.498;11.960;2023-09-19T00:32:51;18.30;99.90
29729;DHT22;20055;51.498;11.960;2023-09-19T00:35:21;18.20;99.90
29729;DHT22;20055;51.498;11.960;2023-09-19T00:37:51;18.20;99.90
29729;DHT22;20055;51.498;11.960;2023-09-19T00:40:17;18.20;99.90
29729;DHT22;20055;51.498;11.960;2023-09-19T00:42:45;18.30;99.90
29729;DHT22;20055;51.498;11.960;2023-09-19T00:45:13;18.20;99.90
29729;DHT22;20055;51.498;11.960;2023-09-19T00:47:41;18.10;99.90
29729;DHT22;20055;51.498;11.960;2023-09-19T00:50:08;18.00;99.90
29729;DHT22;20055;51.498;11.960;2023-09-19T00:52:39;18.00;99.90
29729;DHT22;20055;51.498;11.960;2023-09-19T00:55:10;18.00;99.90
29729;DHT22;20055;51.498;11.960;2023-09-19T00:57:38;18.00;99.90
29729;DHT22;20055;51.498;11.960;2023-09-19T01:00:06;18.00;99.90
29729;DHT22;20055;51.498;11.960;2023-09-19T01:02:35;18.00;99.90
29729;DHT22;20055;51.498;11.960;2023-09-19T01:05:01;17.90;99.90
29729;DHT22;20055;51.498;11.960;2023-09-19T01:07:31;17.80;99.90
29729;DHT22;20055;51.498;11.960;2023-09-19T01:10:00;17.80;99.90
29729;DHT22;20055;51.498;11.960;2023-09-19T01:12:55;17.80;99.90
29729;DHT22;20055;51.498;11.960;2023-09-19T01:21:21;17.70;99.90
29729;DHT22;20055;51.498;11.960;2023-09-19T01:27:21;17.70;99.90
29729;DHT22;20055;51.498;11.960;2023-09-19T01:29:49;17.70;99.90
29729;DHT22;20055;51.498;11.960;2023-09-19T01:32:17;17.70;99.90
29729;DHT22;20055;51.498;11.960;2023-09-19T01:34:49;17.80;99.90
29729;DHT22;20055;51.498;11.960;2023-09-19T01:37:17;17.80;99.90
29729;DHT22;20055;51.498;11.960;2023-09-19T01:39:54;17.80;99.90
29729;DHT22;20055;51.498;11.960;2023-09-19T01:42:28;17.80;99.90
29729;DHT22;20055;51.498;11.960;2023-09-19T01:47:38;18.00;99.90
29729;DHT22;20055;51.498;11.960;2023-09-19T01:50:30;17.90;99.90
29729;DHT22;20055;51.498;11.960;2023-09-19T01:53:07;18.00;99.90
29729;DHT22;20055;51.498;11.960;2023-09-19T01:55:42;18.00;99.90
29729;DHT22;20055;51.498;11.960;2023-09-19T02:00:43;18.00;99.90
29729;DHT22;20055;51.498;11.960;2023-09-19T02:03:11;18.10;99.90
29729;DHT22;20055;51.498;11.960;2023-09-19T02:05:38;18.10;99.90
29729;DHT22;20055;51.498;11.960;2023-09-19T02:08:05;18.10;99.90
29729;DHT22;20055;51.498;11.960;2023-09-19T02:10:31;18.00;99.90
29729;DHT22;20055;51.498;11.960;2023-09-19T02:12:58;18.10;99.90
29729;DHT22;20055;51.498;11.960;2023-09-19T02:15:25;18.10;99.90
29729;DHT22;20055;51.498;11.960;2023-09-19T02:17:51;18.00;99.90
29729;DHT22;20055;51.498;11.960;2023-09-19T02:20:17;18.00;99.90
29729;DHT22;20055;51.498;11.960;2023-09-19T02:22:46;17.90;99.90
29729;DHT22;20055;51.498;11.960;2023-09-19T02:25:12;17.90;99.90
29729;DHT22;20055;51.498;11.960;2023-09-19T02:27:39;18.00;99.90
29729;DHT22;20055;51.498;11.960;2023-09-19T02:30:07;17.90;99.90
29729;DHT22;20055;51.498;11.960;2023-09-19T02:32:33;17.90;99.90
29729;DHT22;20055;51.498;11.960;2023-09-19T02:35:02;17.80;99.90
29729;DHT22;20055;51.498;11.960;2023-09-19T02:37:32;17.80;99.90
29729;DHT22;20055;51.498;11.960;2023-09-19T02:39:59;17.80;99.90
29729;DHT22;20055;51.498;11.960;2023-09-19T02:42:25;17.80;99.90
29729;DHT22;20055;51.498;11.960;2023-09-19T02:44:52;17.80;99.90
29729;DHT22;20055;51.498;11.960;2023-09-19T02:47:18;17.80;99.90
29729;DHT22;20055;51.498;11.960;2023-09-19T02:49:45;17.80;99.90
29729;DHT22;20055;51.498;11.960;2023-09-19T02:52:11;17.70;99.90
29729;DHT22;20055;51.498;11.960;2023-09-19T02:54:40;17.70;99.90
29729;DHT22;20055;51.498;11.960;2023-09-19T02:57:10;17.80;99.90
29729;DHT22;20055;51.498;11.960;2023-09-19T02:59:37;17.70;99.90
29729;DHT22;20055;51.498;11.960;2023-09-19T03:02:03;17.70;99.90
29729;DHT22;20055;51.498;11.960;2023-09-19T03:04:31;17.70;99.90
29729;DHT22;20055;51.498;11.960;2023-09-19T03:06:59;17.70;99.90
29729;DHT22;20055;51.498;11.960;2023-09-19T03:09:27;17.70;99.90
29729;DHT22;20055;51.498;11.960;2023-09-19T03:11:54;17.70;99.90
29729;DHT22;20055;51.498;11.960;2023-09-19T03:14:20;17.70;99.90
29729;DHT22;20055;51.498;11.960;2023-09-19T03:16:47;17.80;99.90
29729;DHT22;20055;51.498;11.960;2023-09-19T03:19:15;17.90;99.90
29729;DHT22;20055;51.498;11.960;2023-09-19T03:21:42;17.90;99.90
29729;DHT22;20055;51.498;11.960;2023-09-19T03:24:08;17.90;99.90
29729;DHT22;20055;51.498;11.960;2023-09-19T03:26:35;17.80;99.90
29729;DHT22;20055;51.498;11.960;2023-09-19T03:29:05;17.80;99.90
29729;DHT22;20055;51.498;11.960;2023-09-19T03:31:36;17.70;99.90
29729;DHT22;20055;51.498;11.960;2023-09-19T03:34:07;17.70;99.90
29729;DHT22;20055;51.498;11.960;2023-09-19T03:36:34;17.60;99.90
29729;DHT22;20055;51.498;11.960;2023-09-19T03:39:01;17.90;99.90
29729;DHT22;20055;51.498;11.960;2023-09-19T03:41:28;18.20;99.90
29729;DHT22;20055;51.498;11.960;2023-09-19T03:43:54;18.40;99.90
29729;DHT22;20055;51.498;11.960;2023-09-19T03:46:21;18.70;99.90
29729;DHT22;20055;51.498;11.960;2023-09-19T03:48:48;18.80;99.90
29729;DHT22;20055;51.498;11.960;2023-09-19T03:51:14;18.80;99.90
29729;DHT22;20055;51.498;11.960;2023-09-19T03:53:41;19.00;99.90
29729;DHT22;20055;51.498;11.960;2023-09-19T03:56:07;18.90;99.90
29729;DHT22;20055;51.498;11.960;2023-09-19T03:58:34;18.90;99.90
29729;DHT22;20055;51.498;11.960;2023-09-19T04:01:05;18.80;99.90
29729;DHT22;20055;51.498;11.960;2023-09-19T04:03:33;18.80;99.90
29729;DHT22;20055;51.498;11.960;2023-09-19T04:06:17;18.70;99.90
29729;DHT22;20055;51.498;11.960;2023-09-19T04:08:44;18.60;99.90
29729;DHT22;20055;51.498;11.960;2023-09-19T04:11:11;18.60;99.90
29729;DHT22;20055;51.498;11.960;2023-09-19T04:13:38;18.50;99.90
29729;DHT22;20055;51.498;11.960;2023-09-19T04:16:04;18.50;99.90
29729;DHT22;20055;51.498;11.960;2023-09-19T04:18:30;18.60;99.90
29729;DHT22;20055;51.498;11.960;2023-09-19T04:21:00;18.60;99.90
29729;DHT22;20055;51.498;11.960;2023-09-19T04:23:30;18.50;99.90
29729;DHT22;20055;51.498;11.960;2023-09-19T04:25:57;18.40;99.90
29729;DHT22;20055;51.498;11.960;2023-09-19T04:28:24;18.40;99.90
29729;DHT22;20055;51.498;11.960;2023-09-19T04:30:50;18.30;99.90
29729;DHT22;20055;51.498;11.960;2023-09-19T04:33:16;18.30;99.90
29729;DHT22;20055;51.498;11.960;2023-09-19T04:35:43;18.20;99.90
29729;DHT22;20055;51.498;11.960;2023-09-19T04:38:10;18.10;99.90
29729;DHT22;20055;51.498;11.960;2023-09-19T04:40:36;18.00;99.90
29729;DHT22;20055;51.498;11.960;2023-09-19T04:43:05;17.80;99.90
29729;DHT22;20055;51.498;11.960;2023-09-19T04:45:33;17.50;99.90
29729;DHT22;20055;51.498;11.960;2023-09-19T04:47:59;17.30;99.90
29729;DHT22;20055;51.498;11.960;2023-09-19T04:50:26;17.20;99.90
29729;DHT22;20055;51.498;11.960;2023-09-19T04:52:53;17.10;99.90
29729;DHT22;20055;51.498;11.960;2023-09-19T04:55:20;17.00;99.90
29729;DHT22;20055;51.498;11.960;2023-09-19T04:57:47;17.00;99.90
29729;DHT22;20055;51.498;11.960;2023-09-19T05:00:18;17.00;99.90
29729;DHT22;20055;51.498;11.960;2023-09-19T05:02:48;16.90;99.90
29729;DHT22;20055;51.498;11.960;2023-09-19T05:05:15;16.90;99.90
29729;DHT22;20055;51.498;11.960;2023-09-19T05:07:43;16.90;99.90
29729;DHT22;20055;51.498;11.960;2023-09-19T05:10:10;16.80;99.90
29729;DHT22;20055;51.498;11.960;2023-09-19T05:12:37;16.70;99.90
29729;DHT22;20055;51.498;11.960;2023-09-19T05:15:07;16.70;99.90
29729;DHT22;20055;51.498;11.960;2023-09-19T05:17:34;16.60;99.90
29729;DHT22;20055;51.498;11.960;2023-09-19T05:20:01;16.60;99.90
29729;DHT22;20055;51.498;11.960;2023-09-19T05:22:41;16.70;99.90
29729;DHT22;20055;51.498;11.960;2023-09-19T05:25:12;16.60;99.90
29729;DHT22;20055;51.498;11.960;2023-09-19T05:27:45;16.60;99.90
29729;DHT22;20055;51.498;11.960;2023-09-19T05:30:11;16.70;99.90
29729;DHT22;20055;51.498;11.960;2023-09-19T05:32:40;16.70;99.90
29729;DHT22;20055;51.498;11.960;2023-09-19T05:35:06;16.70;99.90
29729;DHT22;20055;51.498;11.960;2023-09-19T05:37:35;16.70;99.90
29729;DHT22;20055;51.498;11.960;2023-09-19T05:40:02;16.70;99.90
29729;DHT22;20055;51.498;11.960;2023-09-19T05:42:33;16.70;99.90
29729;DHT22;20055;51.498;11.960;2023-09-19T05:44:59;16.80;99.90
29729;DHT22;20055;51.498;11.960;2023-09-19T05:47:26;16.80;99.90
29729;DHT22;20055;51.498;11.960;2023-09-19T05:49:53;16.80;99.90
29729;DHT22;20055;51.498;11.960;2023-09-19T05:52:19;16.80;99.90
29729;DHT22;20055;51.498;11.960;2023-09-19T05:54:48;16.90;99.90
29729;DHT22;20055;51.498;11.960;2023-09-19T05:57:15;17.00;99.90
29729;DHT22;20055;51.498;11.960;2023-09-19T05:59:41;17.00;99.90
29729;DHT22;20055;51.498;11.960;2023-09-19T06:02:08;17.10;99.90
29729;DHT22;20055;51.498;11.960;2023-09-19T06:04:35;17.10;99.90
29729;DHT22;20055;51.498;11.960;2023-09-19T06:07:02;17.30;99.90
29729;DHT22;20055;51.498;11.960;2023-09-19T06:09:29;17.30;99.90
29729;DHT22;20055;51.498;11.960;2023-09-19T06:11:58;17.50;99.90
29729;DHT22;20055;51.498;11.960;2023-09-19T06:14:29;17.80;99.90
29729;DHT22;20055;51.498;11.960;2023-09-19T06:16:55;18.10;99.90
29729;DHT22;20055;51.498;11.960;2023-09-19T06:19:21;18.30;99.90
29729;DHT22;20055;51.498;11.960;2023-09-19T06:21:49;18.40;99.90
29729;DHT22;20055;51.498;11.960;2023-09-19T06:24:15;18.40;99.90
29729;DHT22;20055;51.498;11.960;2023-09-19T06:26:41;18.60;99.90
29729;DHT22;20055;51.498;11.960;2023-09-19T06:29:10;18.80;99.90
29729;DHT22;20055;51.498;11.960;2023-09-19T06:31:39;19.20;99.90
29729;DHT22;20055;51.498;11.960;2023-09-19T06:34:05;19.40;99.90
29729;DHT22;20055;51.498;11.960;2023-09-19T06:36:31;19.40;99.90
29729;DHT22;20055;51.498;11.960;2023-09-19T06:38:57;19.30;99.90
29729;DHT22;20055;51.498;11.960;2023-09-19T06:41:23;19.30;99.90
29729;DHT22;20055;51.498;11.960;2023-09-19T06:43:50;19.20;99.90
29729;DHT22;20055;51.498;11.960;2023-09-19T06:46:19;19.30;99.90
29729;DHT22;20055;51.498;11.960;2023-09-19T06:48:45;19.40;99.90
29729;DHT22;20055;51.498;11.960;2023-09-19T06:51:14;19.40;99.90
29729;DHT22;20055;51.498;11.960;2023-09-19T06:53:42;19.40;99.90
29729;DHT22;20055;51.498;11.960;2023-09-19T06:56:08;19.30;99.90
29729;DHT22;20055;51.498;11.960;2023-09-19T06:58:35;19.20;99.90
29729;DHT22;20055;51.498;11.960;2023-09-19T07:01:02;19.10;99.90
29729;DHT22;20055;51.498;11.960;2023-09-19T07:03:29;19.20;99.90
29729;DHT22;20055;51.498;11.960;2023-09-19T07:05:55;19.30;99.90
29729;DHT22;20055;51.498;11.960;2023-09-19T07:08:22;19.20;99.90
29729;DHT22;20055;51.498;11.960;2023-09-19T07:10:48;19.40;99.90
29729;DHT22;20055;51.498;11.960;2023-09-19T07:13:15;19.40;99.90
29729;DHT22;20055;51.498;11.960;2023-09-19T07:15:44;19.20;99.90
29729;DHT22;20055;51.498;11.960;2023-09-19T07:18:13;19.10;99.90
29729;DHT22;20055;51.498;11.960;2023-09-19T07:20:41;19.20;99.90
29729;DHT22;20055;51.498;11.960;2023-09-19T07:23:14;19.40;99.90
29729;DHT22;20055;51.498;11.960;2023-09-19T07:25:41;19.30;99.90
29729;DHT22;20055;51.498;11.960;2023-09-19T07:28:07;19.30;99.90
29729;DHT22;20055;51.498;11.960;2023-09-19T07:30:36;19.20;99.90
29729;DHT22;20055;51.498;11.960;2023-09-19T07:33:03;19.30;99.90
29729;DHT22;20055;51.498;11.960;2023-09-19T07:35:32;19.20;99.90
29729;DHT22;20055;51.498;11.960;2023-09-19T07:37:58;19.20;99.90
29729;DHT22;20055;51.498;11.960;2023-09-19T07:40:28;19.10;99.90
29729;DHT22;20055;51.498;11.960;2023-09-19T07:42:55;19.10;99.90
29729;DHT22;20055;51.498;11.960;2023-09-19T07:45:21;19.20;99.90
29729;DHT22;20055;51.498;11.960;2023-09-19T07:47:50;19.30;99.90
29729;DHT22;20055;51.498;11.960;2023-09-19T07:50:18;19.10;99.90
29729;DHT22;20055;51.498;11.960;2023-09-19T07:52:45;18.90;99.90
29729;DHT22;20055;51.498;11.960;2023-09-19T07:55:11;18.60;99.90
29729;DHT22;20055;51.498;11.960;2023-09-19T07:57:45;18.80;99.90
29729;DHT22;20055;51.498;11.960;2023-09-19T08:00:13;18.90;99.90
29729;DHT22;20055;51.498;11.960;2023-09-19T08:02:41;19.00;99.90
29729;DHT22;20055;51.498;11.960;2023-09-19T08:05:11;19.00;99.90
29729;DHT22;20055;51.498;11.960;2023-09-19T08:07:42;19.40;99.90
29729;DHT22;20055;51.498;11.960;2023-09-19T08:10:09;19.40;99.90
29729;DHT22;20055;51.498;11.960;2023-09-19T08:12:40;19.50;99.90
29729;DHT22;20055;51.498;11.960;2023-09-19T08:15:17;19.60;99.90
29729;DHT22;20055;51.498;11.960;2023-09-19T08:17:43;19.40;99.90
29729;DHT22;20055;51.498;11.960;2023-09-19T08:20:10;19.40;99.90
29729;DHT22;20055;51.498;11.960;2023-09-19T08:22:43;19.30;99.90
29729;DHT22;20055;51.498;11.960;2023-09-19T08:25:12;19.60;99.90
29729;DHT22;20055;51.498;11.960;2023-09-19T08:27:38;19.70;99.90
29729;DHT22;20055;51.498;11.960;2023-09-19T08:30:05;19.70;99.90
29729;DHT22;20055;51.498;11.960;2023-09-19T08:32:32;19.90;99.90
29729;DHT22;20055;51.498;11.960;2023-09-19T08:34:58;20.10;99.90
29729;DHT22;20055;51.498;11.960;2023-09-19T08:37:25;20.20;99.90
29729;DHT22;20055;51.498;11.960;2023-09-19T08:39:51;20.40;99.90
29729;DHT22;20055;51.498;11.960;2023-09-19T08:42:17;20.40;99.90
29729;DHT22;20055;51.498;11.960;2023-09-19T08:44:47;20.50;99.90
29729;DHT22;20055;51.498;11.960;2023-09-19T08:47:15;20.30;99.90
29729;DHT22;20055;51.498;11.960;2023-09-19T08:52:43;19.80;99.90
29729;DHT22;20055;51.498;11.960;2023-09-19T08:55:14;20.00;99.90
29729;DHT22;20055;51.498;11.960;2023-09-19T08:57:49;20.00;99.90
29729;DHT22;20055;51.498;11.960;2023-09-19T09:00:16;20.10;99.90
29729;DHT22;20055;51.498;11.960;2023-09-19T09:02:49;20.00;99.90
29729;DHT22;20055;51.498;11.960;2023-09-19T09:05:16;20.10;99.90
29729;DHT22;20055;51.498;11.960;2023-09-19T09:07:52;20.20;99.90
29729;DHT22;20055;51.498;11.960;2023-09-19T09:10:22;20.00;99.90
29729;DHT22;20055;51.498;11.960;2023-09-19T09:12:51;20.10;99.90
29729;DHT22;20055;51.498;11.960;2023-09-19T09:15:19;20.20;99.90
29729;DHT22;20055;51.498;11.960;2023-09-19T09:17:48;19.90;99.90
29729;DHT22;20055;51.498;11.960;2023-09-19T09:20:19;20.10;99.90
29729;DHT22;20055;51.498;11.960;2023-09-19T09:22:56;20.50;99.90
29729;DHT22;20055;51.498;11.960;2023-09-19T09:28:11;20.80;99.90
29729;DHT22;20055;51.498;11.960;2023-09-19T09:30:37;21.20;99.90
29729;DHT22;20055;51.498;11.960;2023-09-19T09:33:11;20.90;99.90
29729;DHT22;20055;51.498;11.960;2023-09-19T09:35:58;21.10;99.90
29729;DHT22;20055;51.498;11.960;2023-09-19T09:38:27;21.20;99.90
29729;DHT22;20055;51.498;11.960;2023-09-19T09:40:55;21.20;99.90
29729;DHT22;20055;51.498;11.960;2023-09-19T09:46:07;21.00;99.90
29729;DHT22;20055;51.498;11.960;2023-09-19T09:48:59;21.00;99.90
29729;DHT22;20055;51.498;11.960;2023-09-19T09:51:50;21.00;99.90
29729;DHT22;20055;51.498;11.960;2023-09-19T09:54:30;20.80;99.90
29729;DHT22;20055;51.498;11.960;2023-09-19T09:57:11;20.60;99.90
29729;DHT22;20055;51.498;11.960;2023-09-19T09:59:54;20.40;99.90
29729;DHT22;20055;51.498;11.960;2023-09-19T10:02:29;20.10;99.90
29729;DHT22;20055;51.498;11.960;2023-09-19T10:04:56;19.90;99.90
29729;DHT22;20055;51.498;11.960;2023-09-19T10:07:52;19.70;99.90
29729;DHT22;20055;51.498;11.960;2023-09-19T10:10:36;19.60;99.90
29729;DHT22;20055;51.498;11.960;2023-09-19T10:13:10;19.70;99.90
29729;DHT22;20055;51.498;11.960;2023-09-19T10:15:51;19.80;99.90
29729;DHT22;20055;51.498;11.960;2023-09-19T10:18:23;20.10;99.90
29729;DHT22;20055;51.498;11.960;2023-09-19T10:20:50;20.00;99.90
29729;DHT22;20055;51.498;11.960;2023-09-19T10:23:18;20.10;99.90
29729;DHT22;20055;51.498;11.960;2023-09-19T10:25:52;20.40;99.90
29729;DHT22;20055;51.498;11.960;2023-09-19T10:28:19;20.10;99.90
29729;DHT22;20055;51.498;11.960;2023-09-19T10:30:51;20.30;99.90
29729;DHT22;20055;51.498;11.960;2023-09-19T10:33:22;20.60;99.90
29729;DHT22;20055;51.498;11.960;2023-09-19T10:35:52;20.90;99.90
29729;DHT22;20055;51.498;11.960;2023-09-19T10:38:19;20.90;99.90
29729;DHT22;20055;51.498;11.960;2023-09-19T10:40:56;21.00;99.90
29729;DHT22;20055;51.498;11.960;2023-09-19T10:43:30;21.10;99.90
29729;DHT22;20055;51.498;11.960;2023-09-19T10:46:02;21.30;99.90
29729;DHT22;20055;51.498;11.960;2023-09-19T10:48:30;21.30;98.90
29729;DHT22;20055;51.498;11.960;2023-09-19T10:53:28;21.00;99.30
29729;DHT22;20055;51.498;11.960;2023-09-19T10:55:58;21.20;99.50
29729;DHT22;20055;51.498;11.960;2023-09-19T10:58:29;21.30;99.20
29729;DHT22;20055;51.498;11.960;2023-09-19T11:01:00;21.40;98.80
29729;DHT22;20055;51.498;11.960;2023-09-19T11:03:39;21.30;99.30
29729;DHT22;20055;51.498;11.960;2023-09-19T11:06:16;21.30;99.10
29729;DHT22;20055;51.498;11.960;2023-09-19T11:11:45;21.80;98.80
29729;DHT22;20055;51.498;11.960;2023-09-19T11:14:30;21.40;98.90
29729;DHT22;20055;51.498;11.960;2023-09-19T11:30:36;21.70;98.80
29729;DHT22;20055;51.498;11.960;2023-09-19T11:36:10;22.00;98.40
29729;DHT22;20055;51.498;11.960;2023-09-19T11:46:52;22.40;96.70
29729;DHT22;20055;51.498;11.960;2023-09-19T11:49:26;22.20;96.90
29729;DHT22;20055;51.498;11.960;2023-09-19T11:51:56;22.00;97.00
29729;DHT22;20055;51.498;11.960;2023-09-19T11:54:23;21.90;95.90
29729;DHT22;20055;51.498;11.960;2023-09-19T11:56:55;21.80;95.90
29729;DHT22;20055;51.498;11.960;2023-09-19T11:59:22;21.70;95.60
29729;DHT22;20055;51.498;11.960;2023-09-19T12:01:53;21.60;95.60
29729;DHT22;20055;51.498;11.960;2023-09-19T12:04:36;21.60;95.50
29729;DHT22;20055;51.498;11.960;2023-09-19T12:07:14;21.60;95.90
29729;DHT22;20055;51.498;11.960;2023-09-19T12:09:48;21.50;96.10
29729;DHT22;20055;51.498;11.960;2023-09-19T12:12:20;21.70;96.70
29729;DHT22;20055;51.498;11.960;2023-09-19T12:14:50;21.50;97.20
29729;DHT22;20055;51.498;11.960;2023-09-19T12:17:17;21.50;97.30
29729;DHT22;20055;51.498;11.960;2023-09-19T12:19:51;21.60;96.70
29729;DHT22;20055;51.498;11.960;2023-09-19T12:22:18;21.90;96.30
29729;DHT22;20055;51.498;11.960;2023-09-19T12:24:46;21.80;95.20
29729;DHT22;20055;51.498;11.960;2023-09-19T12:27:14;21.70;95.50
29729;DHT22;20055;51.498;11.960;2023-09-19T12:29:48;21.70;96.00
29729;DHT22;20055;51.498;11.960;2023-09-19T12:32:15;21.70;95.20
29729;DHT22;20055;51.498;11.960;2023-09-19T12:34:52;21.70;94.60
29729;DHT22;20055;51.498;11.960;2023-09-19T12:37:21;21.90;94.00
29729;DHT22;20055;51.498;11.960;2023-09-19T12:40:08;21.90;93.50
29729;DHT22;20055;51.498;11.960;2023-09-19T12:42:47;21.80;93.90
29729;DHT22;20055;51.498;11.960;2023-09-19T12:45:14;21.90;93.90
29729;DHT22;20055;51.498;11.960;2023-09-19T12:48:17;22.00;94.30
29729;DHT22;20055;51.498;11.960;2023-09-19T12:51:05;22.20;93.20
29729;DHT22;20055;51.498;11.960;2023-09-19T12:53:37;22.20;92.80
29729;DHT22;20055;51.498;11.960;2023-09-19T12:56:09;22.20;92.90
29729;DHT22;20055;51.498;11.960;2023-09-19T12:58:58;22.10;93.20
29729;DHT22;20055;51.498;11.960;2023-09-19T13:01:29;22.20;93.50
29729;DHT22;20055;51.498;11.960;2023-09-19T13:04:12;22.00;93.30
29729;DHT22;20055;51.498;11.960;2023-09-19T13:06:38;22.10;93.80
29729;DHT22;20055;51.498;11.960;2023-09-19T13:09:10;22.30;93.30
29729;DHT22;20055;51.498;11.960;2023-09-19T13:11:38;22.50;93.40
29729;DHT22;20055;51.498;11.960;2023-09-19T13:14:19;22.50;93.60
29729;DHT22;20055;51.498;11.960;2023-09-19T13:17:05;22.40;93.40
29729;DHT22;20055;51.498;11.960;2023-09-19T13:19:49;22.40;92.90
29729;DHT22;20055;51.498;11.960;2023-09-19T13:25:15;22.30;93.20
29729;DHT22;20055;51.498;11.960;2023-09-19T13:27:47;22.30;92.60
29729;DHT22;20055;51.498;11.960;2023-09-19T13:30:17;22.20;93.30
29729;DHT22;20055;51.498;11.960;2023-09-19T13:32:44;22.40;93.80
29729;DHT22;20055;51.498;11.960;2023-09-19T13:35:14;22.30;93.20
29729;DHT22;20055;51.498;11.960;2023-09-19T13:37:41;22.10;94.10
29729;DHT22;20055;51.498;11.960;2023-09-19T13:40:10;22.20;93.90
29729;DHT22;20055;51.498;11.960;2023-09-19T13:42:36;22.40;94.20
29729;DHT22;20055;51.498;11.960;2023-09-19T13:45:03;22.60;93.90
29729;DHT22;20055;51.498;11.960;2023-09-19T13:47:33;22.70;93.10
29729;DHT22;20055;51.498;11.960;2023-09-19T13:50:01;22.80;92.90
29729;DHT22;20055;51.498;11.960;2023-09-19T13:52:29;22.60;93.40
29729;DHT22;20055;51.498;11.960;2023-09-19T13:54:57;22.50;93.60
29729;DHT22;20055;51.498;11.960;2023-09-19T13:57:24;22.40;94.00
29729;DHT22;20055;51.498;11.960;2023-09-19T13:59:51;22.20;94.40
29729;DHT22;20055;51.498;11.960;2023-09-19T14:02:18;22.20;94.70
29729;DHT22;20055;51.498;11.960;2023-09-19T14:04:44;22.10;94.70
29729;DHT22;20055;51.498;11.960;2023-09-19T14:07:11;22.40;94.80
29729;DHT22;20055;51.498;11.960;2023-09-19T14:09:37;22.60;94.70
29729;DHT22;20055;51.498;11.960;2023-09-19T14:12:04;22.40;94.70
29729;DHT22;20055;51.498;11.960;2023-09-19T14:14:30;22.20;94.50
29729;DHT22;20055;51.498;11.960;2023-09-19T14:16:56;22.30;94.60
29729;DHT22;20055;51.498;11.960;2023-09-19T14:19:22;22.00;94.30
29729;DHT22;20055;51.498;11.960;2023-09-19T14:21:51;21.90;94.50
29729;DHT22;20055;51.498;11.960;2023-09-19T14:24:17;21.90;94.80
29729;DHT22;20055;51.498;11.960;2023-09-19T14:26:45;22.20;94.90
29729;DHT22;20055;51.498;11.960;2023-09-19T14:29:11;22.10;94.10
29729;DHT22;20055;51.498;11.960;2023-09-19T14:31:39;22.00;94.40
29729;DHT22;20055;51.498;11.960;2023-09-19T14:34:09;22.10;94.50
29729;DHT22;20055;51.498;11.960;2023-09-19T14:36:38;22.20;94.30
29729;DHT22;20055;51.498;11.960;2023-09-19T14:39:05;22.30;94.10
29729;DHT22;20055;51.498;11.960;2023-09-19T14:41:31;22.40;94.30
29729;DHT22;20055;51.498;11.960;2023-09-19T14:43:57;22.40;93.50
29729;DHT22;20055;51.498;11.960;2023-09-19T14:46:24;22.30;92.40
29729;DHT22;20055;51.498;11.960;2023-09-19T14:48:51;22.10;93.00
29729;DHT22;20055;51.498;11.960;2023-09-19T14:51:18;22.00;92.50
29729;DHT22;20055;51.498;11.960;2023-09-19T14:53:46;21.90;92.50
29729;DHT22;20055;51.498;11.960;2023-09-19T14:56:13;21.90;92.50
29729;DHT22;20055;51.498;11.960;2023-09-19T14:58:44;21.70;92.90
29729;DHT22;20055;51.498;11.960;2023-09-19T15:01:12;21.70;93.30
29729;DHT22;20055;51.498;11.960;2023-09-19T15:03:40;21.80;93.00
29729;DHT22;20055;51.498;11.960;2023-09-19T15:06:09;21.70;93.10
29729;DHT22;20055;51.498;11.960;2023-09-19T15:08:37;21.70;93.10
29729;DHT22;20055;51.498;11.960;2023-09-19T15:11:09;21.60;93.30
29729;DHT22;20055;51.498;11.960;2023-09-19T15:13:36;21.80;94.80
29729;DHT22;20055;51.498;11.960;2023-09-19T15:16:04;22.00;97.90
29729;DHT22;20055;51.498;11.960;2023-09-19T15:18:31;22.10;99.80
29729;DHT22;20055;51.498;11.960;2023-09-19T15:21:03;22.10;94.90
29729;DHT22;20055;51.498;11.960;2023-09-19T15:23:30;22.10;94.40
29729;DHT22;20055;51.498;11.960;2023-09-19T15:25:58;22.20;96.30
29729;DHT22;20055;51.498;11.960;2023-09-19T15:28:24;22.20;96.50
29729;DHT22;20055;51.498;11.960;2023-09-19T15:30:57;22.20;96.30
29729;DHT22;20055;51.498;11.960;2023-09-19T15:33:24;22.20;96.10
29729;DHT22;20055;51.498;11.960;2023-09-19T15:35:50;22.20;94.30
29729;DHT22;20055;51.498;11.960;2023-09-19T15:38:16;22.10;95.30
29729;DHT22;20055;51.498;11.960;2023-09-19T15:40:46;22.10;94.80
29729;DHT22;20055;51.498;11.960;2023-09-19T15:43:13;22.10;93.60
29729;DHT22;20055;51.498;11.960;2023-09-19T15:45:40;21.80;93.60
29729;DHT22;20055;51.498;11.960;2023-09-19T15:48:06;21.80;93.70
29729;DHT22;20055;51.498;11.960;2023-09-19T15:50:32;21.60;93.80
29729;DHT22;20055;51.498;11.960;2023-09-19T15:52:59;21.60;94.00
29729;DHT22;20055;51.498;11.960;2023-09-19T15:55:25;21.50;94.30
29729;DHT22;20055;51.498;11.960;2023-09-19T15:57:52;21.30;94.30
29729;DHT22;20055;51.498;11.960;2023-09-19T16:00:19;21.20;94.40
29729;DHT22;20055;51.498;11.960;2023-09-19T16:02:45;21.10;94.50
29729;DHT22;20055;51.498;11.960;2023-09-19T16:05:13;21.00;94.80
29729;DHT22;20055;51.498;11.960;2023-09-19T16:07:39;21.00;95.10
29729;DHT22;20055;51.498;11.960;2023-09-19T16:10:06;21.00;95.10
29729;DHT22;20055;51.498;11.960;2023-09-19T16:12:33;21.00;95.00
29729;DHT22;20055;51.498;11.960;2023-09-19T16:14:59;20.80;95.20
29729;DHT22;20055;51.498;11.960;2023-09-19T16:17:26;20.60;95.70
29729;DHT22;20055;51.498;11.960;2023-09-19T16:19:52;20.70;95.80
29729;DHT22;20055;51.498;11.960;2023-09-19T16:22:18;20.60;96.10
29729;DHT22;20055;51.498;11.960;2023-09-19T16:24:44;20.50;96.40